createdAt,value
2019-03-29T00:00:22.910Z,6.99
2019-03-29T00:01:23.511Z,7.02
2019-03-29T00:02:22.843Z,6.95
2019-03-29T00:03:22.823Z,7.10
2019-03-29T00:04:22.810Z,6.99
2019-03-29T00:05:22.778Z,6.92
2019-03-29T00:06:22.782Z,6.99
2019-03-29T00:07:22.738Z,6.99
2019-03-29T00:08:22.725Z,6.92
2019-03-29T00:09:22.702Z,6.92
2019-03-29T00:10:22.686Z,6.88
2019-03-29T00:11:22.662Z,6.77
2019-03-29T00:12:22.666Z,6.77
2019-03-29T00:13:23.213Z,6.76
2019-03-29T00:14:23.624Z,6.74
2019-03-29T00:15:22.600Z,6.79
2019-03-29T00:16:22.565Z,6.74
2019-03-29T00:17:22.540Z,6.77
2019-03-29T00:18:22.537Z,6.76
2019-03-29T00:19:22.499Z,6.67
2019-03-29T00:20:22.481Z,6.67
2019-03-29T00:21:22.461Z,6.71
2019-03-29T00:22:22.447Z,6.64
2019-03-29T00:23:23.013Z,6.59
2019-03-29T00:24:22.419Z,6.59
2019-03-29T00:27:04.480Z,6.66
2019-03-29T00:28:04.533Z,6.62
2019-03-29T00:29:04.437Z,6.70
2019-03-29T00:30:04.421Z,6.58
2019-03-29T00:31:04.399Z,6.58
2019-03-29T00:32:04.367Z,6.56
2019-03-29T00:33:04.346Z,6.55
2019-03-29T00:34:04.324Z,6.56
2019-03-29T00:35:04.307Z,6.59
2019-03-29T00:36:04.284Z,6.51
2019-03-29T00:37:04.289Z,6.51
2019-03-29T00:38:04.263Z,6.61
2019-03-29T00:39:04.228Z,6.58
2019-03-29T00:40:04.203Z,6.69
2019-03-29T00:41:04.183Z,6.55
2019-03-29T00:42:04.191Z,6.58
2019-03-29T00:43:04.145Z,6.62
2019-03-29T00:44:04.128Z,6.59
2019-03-29T00:45:04.107Z,6.56
2019-03-29T00:46:04.087Z,6.49
2019-03-29T00:47:04.126Z,6.67
2019-03-29T00:48:04.062Z,6.51
2019-03-29T00:49:04.027Z,6.54
2019-03-29T00:50:04.029Z,6.55
2019-03-29T00:51:03.986Z,6.56
2019-03-29T00:52:03.969Z,6.51
2019-03-29T00:53:03.946Z,6.52
2019-03-29T00:54:03.928Z,6.49
2019-03-29T00:55:03.908Z,6.52
2019-03-29T00:56:03.897Z,6.49
2019-03-29T00:57:04.877Z,6.46
2019-03-29T00:58:03.843Z,6.48
2019-03-29T00:59:03.846Z,6.43
2019-03-29T01:00:03.807Z,6.49
2019-03-29T01:01:03.785Z,6.49
2019-03-29T01:02:03.771Z,6.55
2019-03-29T01:03:03.753Z,6.43
2019-03-29T01:04:03.728Z,6.59
2019-03-29T01:05:03.718Z,6.46
2019-03-29T01:06:03.686Z,6.44
2019-03-29T01:07:04.824Z,6.54
2019-03-29T01:08:08.120Z,6.52
2019-03-29T01:09:04.282Z,6.48
2019-03-29T01:10:03.602Z,6.55
2019-03-29T01:11:03.602Z,6.49
2019-03-29T01:12:03.568Z,6.43
2019-03-29T01:13:03.547Z,6.48
2019-03-29T01:14:03.521Z,6.49
2019-03-29T01:15:03.523Z,6.46
2019-03-29T01:16:03.483Z,6.54
2019-03-29T01:17:03.463Z,6.52
2019-03-29T01:18:03.448Z,6.51
2019-03-29T01:19:04.039Z,6.48
2019-03-29T01:20:03.421Z,6.56
2019-03-29T01:21:03.378Z,6.44
2019-03-29T01:22:03.363Z,6.49
2019-03-29T01:23:03.339Z,6.48
2019-03-29T01:24:03.333Z,6.40
2019-03-29T01:25:03.320Z,6.38
2019-03-29T01:26:03.283Z,6.33
2019-03-29T01:27:03.266Z,6.44
2019-03-29T01:28:03.239Z,6.34
2019-03-29T01:29:03.985Z,6.36
2019-03-29T01:30:03.204Z,6.43
2019-03-29T01:31:03.192Z,6.34
2019-03-29T01:32:03.157Z,6.33
2019-03-29T01:33:04.058Z,6.31
2019-03-29T01:34:03.123Z,6.31
2019-03-29T01:35:03.097Z,6.33
2019-03-29T01:36:03.102Z,6.33
2019-03-29T01:37:03.056Z,6.22
2019-03-29T01:38:03.036Z,6.22
2019-03-29T01:39:03.025Z,6.31
2019-03-29T01:40:03.004Z,6.36
2019-03-29T01:41:02.982Z,6.41
2019-03-29T01:42:02.977Z,6.34
2019-03-29T01:43:02.939Z,6.40
2019-03-29T01:44:02.941Z,6.36
2019-03-29T01:45:02.913Z,6.40
2019-03-29T01:46:04.517Z,6.52
2019-03-29T01:47:03.902Z,6.51
2019-03-29T01:48:03.516Z,6.33
2019-03-29T01:49:02.916Z,6.40
2019-03-29T01:50:02.792Z,6.36
2019-03-29T01:51:02.799Z,6.46
2019-03-29T01:52:02.752Z,6.54
2019-03-29T01:53:02.730Z,6.56
2019-03-29T01:54:04.088Z,6.66
2019-03-29T01:55:02.690Z,6.76
2019-03-29T01:56:02.669Z,6.74
2019-03-29T01:57:02.667Z,6.79
2019-03-29T01:58:02.630Z,6.74
2019-03-29T01:59:02.615Z,6.80
2019-03-29T02:00:02.589Z,6.79
2019-03-29T02:01:05.514Z,6.85
2019-03-29T02:02:02.550Z,6.74
2019-03-29T02:03:02.548Z,6.79
2019-03-29T02:04:05.597Z,6.64
2019-03-29T02:05:02.484Z,6.46
2019-03-29T02:06:03.017Z,6.46
2019-03-29T02:07:02.445Z,6.36
2019-03-29T02:08:02.427Z,6.31
2019-03-29T02:09:02.420Z,6.25
2019-03-29T02:10:02.385Z,6.15
2019-03-29T02:11:02.376Z,6.14
2019-03-29T02:12:02.340Z,6.12
2019-03-29T02:13:02.320Z,6.09
2019-03-29T02:14:02.294Z,6.04
2019-03-29T02:15:02.311Z,5.99
2019-03-29T02:16:02.263Z,5.97
2019-03-29T02:17:02.235Z,5.99
2019-03-29T02:18:02.217Z,5.85
2019-03-29T02:19:02.197Z,5.81
2019-03-29T02:20:02.173Z,5.81
2019-03-29T02:21:02.170Z,5.85
2019-03-29T02:22:02.141Z,5.91
2019-03-29T02:23:02.126Z,5.89
2019-03-29T02:24:02.115Z,5.90
2019-03-29T02:25:02.070Z,6.03
2019-03-29T02:26:02.045Z,5.91
2019-03-29T02:27:02.030Z,5.85
2019-03-29T02:28:02.005Z,5.86
2019-03-29T02:29:01.986Z,5.86
2019-03-29T02:30:04.357Z,5.78
2019-03-29T02:31:01.958Z,5.75
2019-03-29T02:32:01.948Z,5.79
2019-03-29T02:33:01.902Z,5.71
2019-03-29T02:34:01.877Z,5.74
2019-03-29T02:35:01.875Z,5.64
2019-03-29T02:36:01.853Z,5.65
2019-03-29T02:37:02.290Z,5.67
2019-03-29T02:38:01.815Z,5.75
2019-03-29T02:39:02.591Z,5.76
2019-03-29T02:40:01.778Z,5.74
2019-03-29T02:41:01.734Z,5.74
2019-03-29T02:42:01.736Z,5.71
2019-03-29T02:43:02.525Z,5.75
2019-03-29T02:44:01.674Z,5.75
2019-03-29T02:45:03.391Z,5.72
2019-03-29T02:46:01.670Z,5.65
2019-03-29T02:47:01.611Z,5.67
2019-03-29T02:48:03.522Z,5.68
2019-03-29T02:49:01.612Z,5.68
2019-03-29T02:50:02.058Z,5.63
2019-03-29T02:51:01.563Z,5.72
2019-03-29T02:52:01.510Z,5.65
2019-03-29T02:53:01.488Z,5.65
2019-03-29T02:54:01.481Z,5.60
2019-03-29T02:55:01.450Z,5.57
2019-03-29T02:56:01.422Z,5.63
2019-03-29T02:57:01.422Z,5.63
2019-03-29T02:58:01.386Z,5.56
2019-03-29T02:59:01.375Z,5.64
2019-03-29T03:00:01.346Z,5.61
2019-03-29T03:02:43.517Z,5.64
2019-03-29T03:03:43.476Z,5.57
2019-03-29T03:04:43.456Z,5.63
2019-03-29T03:05:43.432Z,5.61
2019-03-29T03:06:43.423Z,5.64
2019-03-29T03:07:43.396Z,5.72
2019-03-29T03:08:43.395Z,5.68
2019-03-29T03:09:43.350Z,5.71
2019-03-29T03:10:43.330Z,5.67
2019-03-29T03:11:43.389Z,5.74
2019-03-29T03:12:43.283Z,5.75
2019-03-29T03:13:43.261Z,5.71
2019-03-29T03:14:44.023Z,5.74
2019-03-29T03:15:43.219Z,5.85
2019-03-29T03:16:43.205Z,5.90
2019-03-29T03:17:43.178Z,5.91
2019-03-29T03:18:43.156Z,5.81
2019-03-29T03:19:43.135Z,5.83
2019-03-29T03:20:43.209Z,5.85
2019-03-29T03:21:43.095Z,5.83
2019-03-29T03:22:43.147Z,5.72
2019-03-29T03:23:43.052Z,5.85
2019-03-29T03:24:43.037Z,5.94
2019-03-29T03:25:44.034Z,5.90
2019-03-29T03:26:42.989Z,5.83
2019-03-29T03:27:43.033Z,5.79
2019-03-29T03:28:42.954Z,5.89
2019-03-29T03:29:42.931Z,5.89
2019-03-29T03:30:42.937Z,5.89
2019-03-29T03:31:42.910Z,5.99
2019-03-29T03:32:42.938Z,5.96
2019-03-29T03:33:42.844Z,5.91
2019-03-29T03:34:42.829Z,5.99
2019-03-29T03:35:42.803Z,5.90
2019-03-29T03:36:42.786Z,5.96
2019-03-29T03:37:42.793Z,6.03
2019-03-29T03:38:42.761Z,5.97
2019-03-29T03:39:42.723Z,5.96
2019-03-29T03:40:42.702Z,6.04
2019-03-29T03:41:42.696Z,5.99
2019-03-29T03:42:42.659Z,6.17
2019-03-29T03:43:42.640Z,6.14
2019-03-29T03:44:42.627Z,6.19
2019-03-29T03:45:42.601Z,6.25
2019-03-29T03:46:42.601Z,6.28
2019-03-29T03:47:42.559Z,6.34
2019-03-29T03:48:42.557Z,6.34
2019-03-29T03:49:42.522Z,6.34
2019-03-29T03:50:42.643Z,6.31
2019-03-29T03:51:42.496Z,6.36
2019-03-29T03:52:42.451Z,6.48
2019-03-29T03:53:42.452Z,6.52
2019-03-29T03:54:42.410Z,6.49
2019-03-29T03:55:42.411Z,6.52
2019-03-29T03:56:42.501Z,6.54
2019-03-29T03:57:42.348Z,6.54
2019-03-29T03:58:42.345Z,6.52
2019-03-29T03:59:42.341Z,6.58
2019-03-29T04:00:42.328Z,6.64
2019-03-29T04:01:42.271Z,6.67
2019-03-29T04:02:42.321Z,6.67
2019-03-29T04:03:42.226Z,6.73
2019-03-29T04:04:42.209Z,6.73
2019-03-29T04:05:42.205Z,6.71
2019-03-29T04:06:42.165Z,6.77
2019-03-29T04:07:42.142Z,6.74
2019-03-29T04:08:42.123Z,6.71
2019-03-29T04:09:50.035Z,6.76
2019-03-29T04:10:42.408Z,6.76
2019-03-29T04:11:42.065Z,6.73
2019-03-29T04:12:42.052Z,6.76
2019-03-29T04:13:42.020Z,6.59
2019-03-29T04:14:42.008Z,6.59
2019-03-29T04:15:41.978Z,6.56
2019-03-29T04:16:41.997Z,6.46
2019-03-29T04:17:41.937Z,6.46
2019-03-29T04:18:41.920Z,6.43
2019-03-29T04:19:41.897Z,6.36
2019-03-29T04:20:41.884Z,6.33
2019-03-29T04:21:41.854Z,6.36
2019-03-29T04:22:41.852Z,6.25
2019-03-29T04:23:41.816Z,6.25
2019-03-29T04:24:41.790Z,6.30
2019-03-29T04:25:41.780Z,6.25
2019-03-29T04:26:41.759Z,6.31
2019-03-29T04:27:41.730Z,6.30
2019-03-29T04:28:41.728Z,6.27
2019-03-29T04:29:41.688Z,6.31
2019-03-29T04:30:41.673Z,6.36
2019-03-29T04:31:41.655Z,6.34
2019-03-29T04:32:41.662Z,6.40
2019-03-29T04:33:41.608Z,6.33
2019-03-29T04:34:41.589Z,6.41
2019-03-29T04:35:41.578Z,6.40
2019-03-29T04:36:41.546Z,6.36
2019-03-29T04:37:41.529Z,6.40
2019-03-29T04:38:41.531Z,6.49
2019-03-29T04:39:41.480Z,6.48
2019-03-29T04:40:41.469Z,6.44
2019-03-29T04:41:41.448Z,6.49
2019-03-29T04:42:41.440Z,6.51
2019-03-29T04:43:41.422Z,6.46
2019-03-29T04:44:42.035Z,6.40
2019-03-29T04:45:41.368Z,6.31
2019-03-29T04:46:41.347Z,6.27
2019-03-29T04:47:41.313Z,6.21
2019-03-29T04:48:41.328Z,6.18
2019-03-29T04:49:41.281Z,6.15
2019-03-29T04:50:41.258Z,6.12
2019-03-29T04:51:41.239Z,6.03
2019-03-29T04:52:41.219Z,6.01
2019-03-29T04:53:41.213Z,6.08
2019-03-29T04:54:41.176Z,5.97
2019-03-29T04:55:41.168Z,5.94
2019-03-29T04:56:41.152Z,5.97
2019-03-29T04:57:41.113Z,5.89
2019-03-29T04:58:41.098Z,5.96
2019-03-29T04:59:41.072Z,5.78
2019-03-29T05:00:41.065Z,5.90
2019-03-29T05:01:41.047Z,5.76
2019-03-29T05:02:41.018Z,5.79
2019-03-29T05:03:40.988Z,5.79
2019-03-29T05:04:40.977Z,5.78
2019-03-29T05:05:40.967Z,5.68
2019-03-29T05:06:40.943Z,5.72
2019-03-29T05:07:41.551Z,5.71
2019-03-29T05:08:40.888Z,5.79
2019-03-29T05:09:40.869Z,5.85
2019-03-29T05:10:40.846Z,5.81
2019-03-29T05:11:40.821Z,5.90
2019-03-29T05:12:40.826Z,5.91
2019-03-29T05:15:23.005Z,6.04
2019-03-29T05:16:22.983Z,6.11
2019-03-29T05:17:22.964Z,6.18
2019-03-29T05:18:22.967Z,6.17
2019-03-29T05:19:22.935Z,6.30
2019-03-29T05:20:22.905Z,6.21
2019-03-29T05:21:22.886Z,6.28
2019-03-29T05:22:22.865Z,6.33
2019-03-29T05:23:22.860Z,6.34
2019-03-29T05:24:22.824Z,6.41
2019-03-29T05:25:22.809Z,6.37
2019-03-29T05:26:25.322Z,6.49
2019-03-29T05:27:22.761Z,6.46
2019-03-29T05:28:22.740Z,6.44
2019-03-29T05:29:22.734Z,6.44
2019-03-29T05:30:22.698Z,6.59
2019-03-29T05:31:22.693Z,6.64
2019-03-29T05:32:22.675Z,6.71
2019-03-29T05:33:22.633Z,6.70
2019-03-29T05:34:22.618Z,6.74
2019-03-29T05:35:22.593Z,6.76
2019-03-29T05:36:22.571Z,6.85
2019-03-29T05:37:22.588Z,6.81
2019-03-29T05:38:22.533Z,6.95
2019-03-29T05:39:22.505Z,7.03
2019-03-29T05:40:34.336Z,7.05
2019-03-29T05:41:22.471Z,7.06
2019-03-29T05:42:22.465Z,7.13
2019-03-29T05:43:22.422Z,7.25
2019-03-29T05:44:22.406Z,7.30
2019-03-29T05:45:22.389Z,7.39
2019-03-29T05:46:22.381Z,7.42
2019-03-29T05:47:22.343Z,7.45
2019-03-29T05:48:22.329Z,7.45
2019-03-29T05:49:22.310Z,7.50
2019-03-29T05:50:22.301Z,7.50
2019-03-29T05:51:22.265Z,7.48
2019-03-29T05:52:22.260Z,7.49
2019-03-29T05:53:22.234Z,7.50
2019-03-29T05:54:22.204Z,7.53
2019-03-29T05:55:32.112Z,7.50
2019-03-29T05:56:22.160Z,7.55
2019-03-29T05:57:22.142Z,7.52
2019-03-29T05:58:22.141Z,7.55
2019-03-29T05:59:22.101Z,7.60
2019-03-29T06:00:22.076Z,7.58
2019-03-29T06:01:22.060Z,7.60
2019-03-29T06:02:22.042Z,7.61
2019-03-29T06:03:22.090Z,7.58
2019-03-29T06:04:21.997Z,7.60
2019-03-29T06:05:21.978Z,7.68
2019-03-29T06:06:22.026Z,7.64
2019-03-29T06:07:21.934Z,7.64
2019-03-29T06:08:21.919Z,7.64
2019-03-29T06:09:21.923Z,7.67
2019-03-29T06:10:21.871Z,7.74
2019-03-29T06:11:21.850Z,7.79
2019-03-29T06:12:21.844Z,7.82
2019-03-29T06:13:21.812Z,7.86
2019-03-29T06:14:21.816Z,7.83
2019-03-29T06:15:21.773Z,7.92
2019-03-29T06:16:21.750Z,7.98
2019-03-29T06:17:21.730Z,7.97
2019-03-29T06:18:21.711Z,7.92
2019-03-29T06:19:21.691Z,7.98
2019-03-29T06:20:21.696Z,7.93
2019-03-29T06:21:23.048Z,8.00
2019-03-29T06:22:21.628Z,8.01
2019-03-29T06:23:21.609Z,7.92
2019-03-29T06:24:21.591Z,8.05
2019-03-29T06:25:21.586Z,8.05
2019-03-29T06:26:21.554Z,8.02
2019-03-29T06:27:21.527Z,8.05
2019-03-29T06:28:21.508Z,8.00
2019-03-29T06:29:21.483Z,7.98
2019-03-29T06:30:21.468Z,8.08
2019-03-29T06:31:21.469Z,8.11
2019-03-29T06:32:21.430Z,8.10
2019-03-29T06:33:21.400Z,8.08
2019-03-29T06:34:21.387Z,8.19
2019-03-29T06:35:21.384Z,8.18
2019-03-29T06:36:21.361Z,8.18
2019-03-29T06:37:21.327Z,8.18
2019-03-29T06:38:21.316Z,8.22
2019-03-29T06:39:21.476Z,8.19
2019-03-29T06:40:21.264Z,8.20
2019-03-29T06:41:21.241Z,8.30
2019-03-29T06:42:21.220Z,8.19
2019-03-29T06:43:21.201Z,8.26
2019-03-29T06:44:21.199Z,8.33
2019-03-29T06:45:21.160Z,8.38
2019-03-29T06:46:21.140Z,8.38
2019-03-29T06:47:21.116Z,8.44
2019-03-29T06:48:21.102Z,8.43
2019-03-29T06:49:21.079Z,8.47
2019-03-29T06:50:21.073Z,8.41
2019-03-29T06:51:21.041Z,8.48
2019-03-29T06:52:21.045Z,8.55
2019-03-29T06:53:21.021Z,8.61
2019-03-29T06:54:21.015Z,8.66
2019-03-29T06:55:20.963Z,8.73
2019-03-29T06:56:20.941Z,8.76
2019-03-29T06:57:21.066Z,8.81
2019-03-29T06:58:20.903Z,8.76
2019-03-29T06:59:20.876Z,8.77
2019-03-29T07:00:20.870Z,8.84
2019-03-29T07:01:21.563Z,8.87
2019-03-29T07:02:20.816Z,8.95
2019-03-29T07:03:20.793Z,8.92
2019-03-29T07:04:20.779Z,9.08
2019-03-29T07:05:20.751Z,9.15
2019-03-29T07:06:20.754Z,9.11
2019-03-29T07:07:20.715Z,9.17
2019-03-29T07:08:20.707Z,9.18
2019-03-29T07:09:20.677Z,9.13
2019-03-29T07:10:20.658Z,9.15
2019-03-29T07:11:20.641Z,9.10
2019-03-29T07:12:20.641Z,9.05
2019-03-29T07:13:20.607Z,9.24
2019-03-29T07:14:20.591Z,9.26
2019-03-29T07:15:20.553Z,9.18
2019-03-29T07:16:20.541Z,9.31
2019-03-29T07:17:20.520Z,9.24
2019-03-29T07:18:20.497Z,9.42
2019-03-29T07:19:20.492Z,9.50
2019-03-29T07:20:20.472Z,9.50
2019-03-29T07:21:21.791Z,9.50
2019-03-29T07:22:20.415Z,9.61
2019-03-29T07:23:20.397Z,9.60
2019-03-29T07:24:20.380Z,9.69
2019-03-29T07:25:20.378Z,9.78
2019-03-29T07:26:20.338Z,9.84
2019-03-29T07:27:20.336Z,9.87
2019-03-29T07:28:20.301Z,9.90
2019-03-29T07:29:20.298Z,9.91
2019-03-29T07:30:20.286Z,10.08
2019-03-29T07:31:20.240Z,10.07
2019-03-29T07:32:20.217Z,10.17
2019-03-29T07:33:20.196Z,10.12
2019-03-29T07:34:20.195Z,10.17
2019-03-29T07:35:20.176Z,10.20
2019-03-29T07:36:20.139Z,10.20
2019-03-29T07:37:20.126Z,10.32
2019-03-29T07:38:20.103Z,10.23
2019-03-29T07:39:20.081Z,10.22
2019-03-29T07:40:20.061Z,10.30
2019-03-29T07:41:30.960Z,10.26
2019-03-29T07:42:20.024Z,10.30
2019-03-29T07:43:20.010Z,10.41
2019-03-29T07:44:19.981Z,10.33
2019-03-29T07:45:19.963Z,10.40
2019-03-29T07:46:19.970Z,10.53
2019-03-29T07:47:19.923Z,10.52
2019-03-29T07:48:19.928Z,10.61
2019-03-29T07:49:19.886Z,10.66
2019-03-29T07:50:19.865Z,10.70
2019-03-29T07:51:19.854Z,10.79
2019-03-29T07:52:19.825Z,10.81
2019-03-29T07:53:19.825Z,10.78
2019-03-29T07:54:19.785Z,10.85
2019-03-29T07:55:19.768Z,10.91
2019-03-29T07:56:19.810Z,10.88
2019-03-29T07:57:19.729Z,10.89
2019-03-29T07:58:19.709Z,10.86
2019-03-29T07:59:19.711Z,10.86
2019-03-29T08:00:20.576Z,10.85
2019-03-29T08:01:19.652Z,10.85
2019-03-29T08:02:19.686Z,10.89
2019-03-29T08:03:21.348Z,10.89
2019-03-29T08:04:21.666Z,10.94
2019-03-29T08:05:19.588Z,11.04
2019-03-29T08:06:19.561Z,11.14
2019-03-29T08:07:27.060Z,11.10
2019-03-29T08:08:24.248Z,11.22
2019-03-29T08:09:22.740Z,11.35
2019-03-29T08:10:27.452Z,11.37
2019-03-29T08:11:26.108Z,11.40
2019-03-29T08:12:20.125Z,11.44
2019-03-29T08:13:19.421Z,11.44
2019-03-29T08:14:19.401Z,11.47
2019-03-29T08:15:19.385Z,11.51
2019-03-29T08:16:19.412Z,11.62
2019-03-29T08:17:19.339Z,11.76
2019-03-29T08:18:19.325Z,11.82
2019-03-29T08:19:19.306Z,11.91
2019-03-29T08:20:43.878Z,11.96
2019-03-29T08:21:19.264Z,11.96
2019-03-29T08:22:19.271Z,12.04
2019-03-29T08:23:19.234Z,12.04
2019-03-29T08:24:19.207Z,12.14
2019-03-29T08:25:19.192Z,12.17
2019-03-29T08:26:19.180Z,12.24
2019-03-29T08:27:19.190Z,12.29
2019-03-29T08:28:19.152Z,12.34
2019-03-29T08:29:19.165Z,12.39
2019-03-29T08:30:19.097Z,12.56
2019-03-29T08:31:19.093Z,12.54
2019-03-29T08:32:19.061Z,12.56
2019-03-29T08:33:19.043Z,12.62
2019-03-29T08:34:19.040Z,12.65
2019-03-29T08:35:19.013Z,12.65
2019-03-29T08:36:18.991Z,12.64
2019-03-29T08:37:18.983Z,12.71
2019-03-29T08:38:18.951Z,12.83
2019-03-29T08:39:27.947Z,12.89
2019-03-29T08:40:18.908Z,12.89
2019-03-29T08:41:18.898Z,12.90
2019-03-29T08:42:19.036Z,12.93
2019-03-29T08:43:19.647Z,13.05
2019-03-29T08:44:18.859Z,13.08
2019-03-29T08:45:18.815Z,13.10
2019-03-29T08:46:18.803Z,13.28
2019-03-29T08:47:18.799Z,13.29
2019-03-29T08:48:18.759Z,13.32
2019-03-29T08:49:18.749Z,13.20
2019-03-29T08:50:18.792Z,13.32
2019-03-29T08:51:18.710Z,13.38
2019-03-29T08:52:18.693Z,13.41
2019-03-29T08:53:18.674Z,13.39
2019-03-29T08:54:18.656Z,13.48
2019-03-29T08:55:18.636Z,13.49
2019-03-29T08:56:18.647Z,13.60
2019-03-29T08:57:18.606Z,13.75
2019-03-29T08:58:18.584Z,13.91
2019-03-29T08:59:18.567Z,14.09
2019-03-29T09:00:18.547Z,14.15
2019-03-29T09:01:19.551Z,14.40
2019-03-29T09:02:18.543Z,14.86
2019-03-29T09:03:18.494Z,15.21
2019-03-29T09:04:21.593Z,15.71
2019-03-29T09:05:18.477Z,15.59
2019-03-29T09:06:18.443Z,16.35
2019-03-29T09:07:18.416Z,16.49
2019-03-29T09:08:19.121Z,17.12
2019-03-29T09:09:18.390Z,16.96
2019-03-29T09:10:18.389Z,16.50
2019-03-29T09:11:18.357Z,16.52
2019-03-29T09:12:18.336Z,16.97
2019-03-29T09:13:18.317Z,17.33
2019-03-29T09:14:18.297Z,17.07
2019-03-29T09:15:18.303Z,17.36
2019-03-29T09:16:18.272Z,17.96
2019-03-29T09:17:18.246Z,18.15
2019-03-29T09:18:18.229Z,18.29
2019-03-29T09:19:18.222Z,17.74
2019-03-29T09:20:18.196Z,17.89
2019-03-29T09:21:18.215Z,18.26
2019-03-29T09:24:00.055Z,18.54
2019-03-29T09:25:00.043Z,18.25
2019-03-29T09:26:00.019Z,18.23
2019-03-29T09:27:00.188Z,18.87
2019-03-29T09:27:59.990Z,18.42
2019-03-29T09:28:59.974Z,18.66
2019-03-29T09:29:59.959Z,18.72
2019-03-29T09:30:59.950Z,18.08
2019-03-29T09:32:00.024Z,17.95
2019-03-29T09:32:59.938Z,17.81
2019-03-29T09:33:59.905Z,17.26
2019-03-29T09:34:59.889Z,17.51
2019-03-29T09:35:59.875Z,17.16
2019-03-29T09:37:00.222Z,16.79
2019-03-29T09:37:59.852Z,17.25
2019-03-29T09:38:59.857Z,16.53
2019-03-29T09:39:59.824Z,16.86
2019-03-29T09:40:59.815Z,17.49
2019-03-29T09:41:59.807Z,18.23
2019-03-29T09:43:07.054Z,18.62
2019-03-29T09:43:59.773Z,19.13
2019-03-29T09:44:59.781Z,18.98
2019-03-29T09:46:03.160Z,17.62
2019-03-29T09:46:59.740Z,17.95
2019-03-29T09:47:59.743Z,17.93
2019-03-29T09:48:59.738Z,17.58
2019-03-29T09:49:59.732Z,17.78
2019-03-29T09:50:59.714Z,18.02
2019-03-29T09:51:59.750Z,18.66
2019-03-29T09:53:01.413Z,19.63
2019-03-29T09:53:59.684Z,20.33
2019-03-29T09:54:59.679Z,20.94
2019-03-29T09:55:59.663Z,20.94
2019-03-29T09:56:59.639Z,20.85
2019-03-29T09:57:59.641Z,19.54
2019-03-29T09:58:59.625Z,18.35
2019-03-29T09:59:59.629Z,18.08
2019-03-29T10:00:59.599Z,18.51
2019-03-29T10:01:59.592Z,19.10
2019-03-29T10:02:59.583Z,19.84
2019-03-29T10:03:59.573Z,20.14
2019-03-29T10:04:59.584Z,20.42
2019-03-29T10:05:59.610Z,20.69
2019-03-29T10:06:59.548Z,20.33
2019-03-29T10:07:59.536Z,19.95
2019-03-29T10:08:59.540Z,19.61
2019-03-29T10:09:59.549Z,18.75
2019-03-29T10:10:59.518Z,18.67
2019-03-29T10:11:59.506Z,18.45
2019-03-29T10:12:59.498Z,18.84
2019-03-29T10:13:59.494Z,18.66
2019-03-29T10:14:59.486Z,18.25
2019-03-29T10:15:59.499Z,18.37
2019-03-29T10:16:59.491Z,18.63
2019-03-29T10:17:59.474Z,18.90
2019-03-29T10:18:59.451Z,19.16
2019-03-29T10:19:59.443Z,19.54
2019-03-29T10:20:59.439Z,20.08
2019-03-29T10:21:59.424Z,20.17
2019-03-29T10:22:59.442Z,20.59
2019-03-29T10:23:59.412Z,20.99
2019-03-29T10:25:02.062Z,20.92
2019-03-29T10:25:59.408Z,20.97
2019-03-29T10:26:59.387Z,20.64
2019-03-29T10:27:59.379Z,20.61
2019-03-29T10:28:59.405Z,20.61
2019-03-29T10:29:59.367Z,20.76
2019-03-29T10:30:59.358Z,21.19
2019-03-29T10:31:59.357Z,21.12
2019-03-29T10:32:59.349Z,21.16
2019-03-29T10:33:59.431Z,20.97
2019-03-29T10:34:59.367Z,20.66
2019-03-29T10:35:59.359Z,20.97
2019-03-29T10:36:59.329Z,21.13
2019-03-29T10:37:59.321Z,21.13
2019-03-29T10:38:59.316Z,21.21
2019-03-29T10:39:59.302Z,21.01
2019-03-29T10:40:59.301Z,20.11
2019-03-29T10:41:59.390Z,19.76
2019-03-29T10:42:59.288Z,19.84
2019-03-29T10:43:59.282Z,19.92
2019-03-29T10:44:59.281Z,20.14
2019-03-29T10:45:59.268Z,19.32
2019-03-29T10:46:59.256Z,19.13
2019-03-29T10:47:59.281Z,18.99
2019-03-29T10:48:59.253Z,18.66
2019-03-29T10:49:59.244Z,18.50
2019-03-29T10:50:59.247Z,18.67
2019-03-29T10:51:59.233Z,19.19
2019-03-29T10:52:59.227Z,19.56
2019-03-29T10:53:59.244Z,19.83
2019-03-29T10:54:59.216Z,20.31
2019-03-29T10:55:59.214Z,20.67
2019-03-29T10:56:59.205Z,21.25
2019-03-29T10:57:59.192Z,21.43
2019-03-29T10:58:59.188Z,21.42
2019-03-29T10:59:59.202Z,21.72
2019-03-29T11:00:59.174Z,21.86
2019-03-29T11:01:59.170Z,22.15
2019-03-29T11:02:59.164Z,21.72
2019-03-29T11:03:59.158Z,21.72
2019-03-29T11:04:59.166Z,21.82
2019-03-29T11:05:59.185Z,22.02
2019-03-29T11:06:59.138Z,22.18
2019-03-29T11:07:59.163Z,21.96
2019-03-29T11:08:59.138Z,22.09
2019-03-29T11:09:59.161Z,22.33
2019-03-29T11:10:59.128Z,22.36
2019-03-29T11:11:59.120Z,22.30
2019-03-29T11:13:11.739Z,22.02
2019-03-29T11:13:59.126Z,21.67
2019-03-29T11:14:59.104Z,20.47
2019-03-29T11:15:59.105Z,20.38
2019-03-29T11:16:59.096Z,20.50
2019-03-29T11:17:59.095Z,20.26
2019-03-29T11:18:59.106Z,20.38
2019-03-29T11:19:59.081Z,20.32
2019-03-29T11:20:59.105Z,20.48
2019-03-29T11:21:59.068Z,20.88
2019-03-29T11:22:59.065Z,21.37
2019-03-29T11:23:59.064Z,21.71
2019-03-29T11:24:59.062Z,21.72
2019-03-29T11:25:59.056Z,21.61
2019-03-29T11:26:59.083Z,21.38
2019-03-29T11:27:59.059Z,21.13
2019-03-29T11:28:59.043Z,21.19
2019-03-29T11:29:59.034Z,21.38
2019-03-29T11:30:59.039Z,21.72
2019-03-29T11:31:59.030Z,21.71
2019-03-29T11:32:59.044Z,21.99
2019-03-29T11:33:59.039Z,22.30
2019-03-29T11:34:59.018Z,22.35
2019-03-29T11:35:59.013Z,22.36
2019-03-29T11:36:59.013Z,22.52
2019-03-29T11:37:59.007Z,22.75
2019-03-29T11:38:59.023Z,22.86
2019-03-29T11:39:59.000Z,22.79
2019-03-29T11:40:58.999Z,22.86
2019-03-29T11:41:59.007Z,22.97
2019-03-29T11:42:58.985Z,23.00
2019-03-29T11:43:58.987Z,22.86
2019-03-29T11:45:04.250Z,22.55
2019-03-29T11:45:58.977Z,22.51
2019-03-29T11:46:58.975Z,22.24
2019-03-29T11:48:08.187Z,22.03
2019-03-29T11:48:58.968Z,22.18
2019-03-29T11:49:58.967Z,22.22
2019-03-29T11:50:58.979Z,22.25
2019-03-29T11:51:58.955Z,22.10
2019-03-29T11:52:58.952Z,22.33
2019-03-29T11:53:58.949Z,22.47
2019-03-29T11:54:58.964Z,22.62
2019-03-29T11:55:58.943Z,22.90
2019-03-29T11:56:58.943Z,23.01
2019-03-29T11:57:58.954Z,23.15
2019-03-29T11:58:58.931Z,23.12
2019-03-29T11:59:58.956Z,23.07
2019-03-29T12:00:58.948Z,23.28
2019-03-29T12:01:58.942Z,23.16
2019-03-29T12:02:58.922Z,23.22
2019-03-29T12:03:58.943Z,23.35
2019-03-29T12:04:58.917Z,23.35
2019-03-29T12:05:58.914Z,23.35
2019-03-29T12:06:58.957Z,23.35
2019-03-29T12:07:58.904Z,23.25
2019-03-29T12:08:58.925Z,23.22
2019-03-29T12:09:58.901Z,23.17
2019-03-29T12:10:58.896Z,23.20
2019-03-29T12:11:58.893Z,23.17
2019-03-29T12:12:58.905Z,23.05
2019-03-29T12:13:58.881Z,23.09
2019-03-29T12:14:58.882Z,23.20
2019-03-29T12:15:58.881Z,23.16
2019-03-29T12:16:58.884Z,23.01
2019-03-29T12:17:58.885Z,22.97
2019-03-29T12:18:58.870Z,22.94
2019-03-29T12:19:58.868Z,22.97
2019-03-29T12:20:58.890Z,23.15
2019-03-29T12:21:58.865Z,23.23
2019-03-29T12:22:58.860Z,22.39
2019-03-29T12:23:58.867Z,22.35
2019-03-29T12:24:58.873Z,22.31
2019-03-29T12:25:58.852Z,22.33
2019-03-29T12:26:58.851Z,22.39
2019-03-29T12:27:58.844Z,22.47
2019-03-29T12:28:58.836Z,22.73
2019-03-29T12:29:58.854Z,22.73
2019-03-29T12:30:58.849Z,22.85
2019-03-29T12:31:58.838Z,23.07
2019-03-29T12:32:58.830Z,23.27
2019-03-29T12:33:58.830Z,23.40
2019-03-29T12:34:58.817Z,23.43
2019-03-29T12:35:58.843Z,23.51
2019-03-29T12:36:58.834Z,23.63
2019-03-29T12:37:58.822Z,23.78
2019-03-29T12:38:58.804Z,23.83
2019-03-29T12:39:58.820Z,23.78
2019-03-29T12:40:58.804Z,23.73
2019-03-29T12:41:58.889Z,23.84
2019-03-29T12:42:58.798Z,23.22
2019-03-29T12:43:58.793Z,23.31
2019-03-29T12:44:58.788Z,22.91
2019-03-29T12:45:58.800Z,23.01
2019-03-29T12:46:58.780Z,23.01
2019-03-29T12:47:58.793Z,23.05
2019-03-29T12:48:58.793Z,23.16
2019-03-29T12:49:58.773Z,23.15
2019-03-29T12:50:58.768Z,23.22
2019-03-29T12:51:58.771Z,23.13
2019-03-29T12:52:58.776Z,23.12
2019-03-29T12:53:58.757Z,23.25
2019-03-29T12:54:58.760Z,23.43
2019-03-29T12:55:58.749Z,23.39
2019-03-29T12:56:58.746Z,23.40
2019-03-29T12:57:58.741Z,23.47
2019-03-29T12:58:58.757Z,23.50
2019-03-29T12:59:58.765Z,23.51
2019-03-29T13:00:58.738Z,23.58
2019-03-29T13:01:58.733Z,23.51
2019-03-29T13:02:58.738Z,23.55
2019-03-29T13:03:58.721Z,23.78
2019-03-29T13:04:58.719Z,23.80
2019-03-29T13:05:58.733Z,24.05
2019-03-29T13:06:58.725Z,23.98
2019-03-29T13:07:58.711Z,24.00
2019-03-29T13:08:58.702Z,24.06
2019-03-29T13:09:58.712Z,24.22
2019-03-29T13:10:58.697Z,24.34
2019-03-29T13:11:58.712Z,24.40
2019-03-29T13:13:00.608Z,24.53
2019-03-29T13:14:09.527Z,24.35